Gilbert Plains, Canada
Current Conditions -  °F | °C
As of 8:44 AM on Monday 20 Oct 2014 (Local Time) from CYDN Reporting Station
Haze Haze  
Wind Chill: 30°   Ceiling: Unl
Heat Index: 30°   Visibility: 0.62mi
Dew Point: 30°   Wind: 0mph
Humidity: 100%   Direction: NA
Pressure: 30.03"   Gusts: NA
Location:  51.13°N, 100.48°W
Report Text: CYDN 201344Z AUTO 00000KT 5/8SM BR SCT001 M01/M01 A3003 RMK SLP182
Loading
Personal Weather Stations






























Interactive Weather Map New forecast layout! Learn more

10-Day Weather Forecast

Advertisements
Track Severe Weather on mobile